sensor_id;sensor_type;location;lat;lon;timestamp;pressure;altitude;pressure_sealevel;temperature;humidity
23473;BME280;11909;52.516;13.564;2023-02-02T00:01:53;100125.56;;;3.41;93.13
23473;BME280;11909;52.516;13.564;2023-02-02T00:04:24;100114.28;;;3.50;92.42
23473;BME280;11909;52.516;13.564;2023-02-02T00:06:53;100118.16;;;3.54;92.56
23473;BME280;11909;52.516;13.564;2023-02-02T00:09:22;100121.63;;;3.49;91.91
23473;BME280;11909;52.516;13.564;2023-02-02T00:11:50;100111.75;;;3.60;91.78
23473;BME280;11909;52.516;13.564;2023-02-02T00:14:18;100122.25;;;3.56;92.02
23473;BME280;11909;52.516;13.564;2023-02-02T00:16:47;100119.69;;;3.67;90.73
23473;BME280;11909;52.516;13.564;2023-02-02T00:19:17;100131.03;;;3.64;90.48
23473;BME280;11909;52.516;13.564;2023-02-02T00:21:46;100117.47;;;3.64;90.03
23473;BME280;11909;52.516;13.564;2023-02-02T00:24:16;100103.50;;;3.72;90.33
23473;BME280;11909;52.516;13.564;2023-02-02T00:26:45;100101.25;;;3.69;90.52
23473;BME280;11909;52.516;13.564;2023-02-02T00:29:15;100108.09;;;3.71;90.37
23473;BME280;11909;52.516;13.564;2023-02-02T00:31:43;100111.69;;;3.77;89.57
23473;BME280;11909;52.516;13.564;2023-02-02T00:34:12;100093.78;;;3.76;89.82
23473;BME280;11909;52.516;13.564;2023-02-02T00:36:40;100079.13;;;3.77;90.16
23473;BME280;11909;52.516;13.564;2023-02-02T00:39:13;100107.91;;;3.78;90.05
23473;BME280;11909;52.516;13.564;2023-02-02T00:41:41;100088.63;;;3.80;90.32
23473;BME280;11909;52.516;13.564;2023-02-02T00:44:08;100082.16;;;3.81;91.11
23473;BME280;11909;52.516;13.564;2023-02-02T00:46:53;100099.78;;;3.78;91.41
23473;BME280;11909;52.516;13.564;2023-02-02T00:49:21;100085.94;;;3.80;92.10
23473;BME280;11909;52.516;13.564;2023-02-02T00:51:49;100088.00;;;3.72;92.82
23473;BME280;11909;52.516;13.564;2023-02-02T00:54:18;100082.59;;;3.72;93.04
23473;BME280;11909;52.516;13.564;2023-02-02T00:56:46;100077.50;;;3.76;92.72
23473;BME280;11909;52.516;13.564;2023-02-02T00:59:13;100089.47;;;3.80;93.19
23473;BME280;11909;52.516;13.564;2023-02-02T01:01:41;100079.94;;;3.78;93.15
23473;BME280;11909;52.516;13.564;2023-02-02T01:04:09;100083.47;;;3.78;94.68
23473;BME280;11909;52.516;13.564;2023-02-02T01:06:37;100085.13;;;3.79;95.08
23473;BME280;11909;52.516;13.564;2023-02-02T01:09:04;100060.75;;;3.84;94.76
23473;BME280;11909;52.516;13.564;2023-02-02T01:11:33;100072.81;;;3.71;95.66
23473;BME280;11909;52.516;13.564;2023-02-02T01:14:01;100082.53;;;3.67;96.49
23473;BME280;11909;52.516;13.564;2023-02-02T01:16:29;100072.56;;;3.73;96.20
23473;BME280;11909;52.516;13.564;2023-02-02T01:18:57;100072.47;;;3.68;96.52
23473;BME280;11909;52.516;13.564;2023-02-02T01:21:25;100067.03;;;3.68;97.22
23473;BME280;11909;52.516;13.564;2023-02-02T01:23:53;100092.53;;;3.67;97.38
23473;BME280;11909;52.516;13.564;2023-02-02T01:26:20;100064.53;;;3.61;98.41
23473;BME280;11909;52.516;13.564;2023-02-02T01:28:49;100077.91;;;3.68;98.84
23473;BME280;11909;52.516;13.564;2023-02-02T01:31:18;100067.66;;;3.70;98.91
23473;BME280;11909;52.516;13.564;2023-02-02T01:33:47;100077.84;;;3.63;99.55
23473;BME280;11909;52.516;13.564;2023-02-02T01:36:17;100068.63;;;3.64;99.97
23473;BME280;11909;52.516;13.564;2023-02-02T01:38:46;100068.91;;;3.62;100.00
23473;BME280;11909;52.516;13.564;2023-02-02T01:41:17;100073.50;;;3.62;100.00
23473;BME280;11909;52.516;13.564;2023-02-02T01:43:52;100075.19;;;3.68;99.87
23473;BME280;11909;52.516;13.564;2023-02-02T01:46:22;100084.59;;;3.60;100.00
23473;BME280;11909;52.516;13.564;2023-02-02T01:48:52;100072.91;;;3.59;100.00
23473;BME280;11909;52.516;13.564;2023-02-02T01:51:24;100069.63;;;3.57;100.00
23473;BME280;11909;52.516;13.564;2023-02-02T01:53:54;100084.66;;;3.65;99.88
23473;BME280;11909;52.516;13.564;2023-02-02T01:56:27;100073.53;;;3.67;99.75
23473;BME280;11909;52.516;13.564;2023-02-02T01:58:59;100085.09;;;3.57;100.00
23473;BME280;11909;52.516;13.564;2023-02-02T02:01:27;100093.63;;;3.66;100.00
23473;BME280;11909;52.516;13.564;2023-02-02T02:03:55;100101.03;;;3.70;100.00
23473;BME280;11909;52.516;13.564;2023-02-02T02:06:24;100082.84;;;3.71;99.79
23473;BME280;11909;52.516;13.564;2023-02-02T02:08:58;100083.53;;;3.61;100.00
23473;BME280;11909;52.516;13.564;2023-02-02T02:11:26;100084.97;;;3.69;99.86
23473;BME280;11909;52.516;13.564;2023-02-02T02:13:56;100090.66;;;3.67;100.00
23473;BME280;11909;52.516;13.564;2023-02-02T02:16:53;100100.50;;;3.73;99.61
23473;BME280;11909;52.516;13.564;2023-02-02T02:22:55;100110.88;;;3.77;100.00
23473;BME280;11909;52.516;13.564;2023-02-02T02:26:01;100099.38;;;3.69;100.00
23473;BME280;11909;52.516;13.564;2023-02-02T02:29:27;100102.66;;;3.71;100.00
23473;BME280;11909;52.516;13.564;2023-02-02T02:32:23;100116.06;;;3.78;99.42
23473;BME280;11909;52.516;13.564;2023-02-02T02:34:57;100123.44;;;3.83;98.79
23473;BME280;11909;52.516;13.564;2023-02-02T02:37:35;100127.59;;;3.91;97.94
23473;BME280;11909;52.516;13.564;2023-02-02T02:40:10;100122.13;;;3.85;98.51
23473;BME280;11909;52.516;13.564;2023-02-02T02:42:44;100117.34;;;3.93;98.88
23473;BME280;11909;52.516;13.564;2023-02-02T02:45:13;100118.47;;;3.97;97.08
23473;BME280;11909;52.516;13.564;2023-02-02T02:47:42;100139.69;;;4.00;97.17
23473;BME280;11909;52.516;13.564;2023-02-02T02:50:10;100131.38;;;4.07;96.22
23473;BME280;11909;52.516;13.564;2023-02-02T02:52:39;100133.31;;;4.11;95.99
23473;BME280;11909;52.516;13.564;2023-02-02T02:55:08;100151.13;;;4.02;95.97
23473;BME280;11909;52.516;13.564;2023-02-02T02:57:46;100112.66;;;4.10;94.75
23473;BME280;11909;52.516;13.564;2023-02-02T03:03:20;100141.97;;;4.08;95.05
23473;BME280;11909;52.516;13.564;2023-02-02T03:05:52;100149.94;;;4.15;95.47
23473;BME280;11909;52.516;13.564;2023-02-02T03:08:24;100157.63;;;4.23;94.94
23473;BME280;11909;52.516;13.564;2023-02-02T03:10:54;100165.19;;;4.21;94.50
23473;BME280;11909;52.516;13.564;2023-02-02T03:13:23;100170.91;;;4.20;95.07
23473;BME280;11909;52.516;13.564;2023-02-02T03:15:52;100186.44;;;4.24;95.06
23473;BME280;11909;52.516;13.564;2023-02-02T03:18:24;100159.47;;;4.18;94.80
23473;BME280;11909;52.516;13.564;2023-02-02T03:20:53;100157.38;;;4.25;94.41
23473;BME280;11909;52.516;13.564;2023-02-02T03:23:21;100188.84;;;4.21;94.68
23473;BME280;11909;52.516;13.564;2023-02-02T03:25:49;100174.81;;;4.29;94.63
23473;BME280;11909;52.516;13.564;2023-02-02T03:28:17;100184.16;;;4.16;95.93
23473;BME280;11909;52.516;13.564;2023-02-02T03:30:46;100188.34;;;4.24;94.83
23473;BME280;11909;52.516;13.564;2023-02-02T03:33:15;100211.19;;;4.28;94.46
23473;BME280;11909;52.516;13.564;2023-02-02T03:35:45;100201.22;;;4.34;94.52
23473;BME280;11909;52.516;13.564;2023-02-02T03:38:13;100211.59;;;4.37;93.63
23473;BME280;11909;52.516;13.564;2023-02-02T03:40:41;100208.31;;;4.35;93.43
23473;BME280;11909;52.516;13.564;2023-02-02T03:43:09;100212.34;;;4.32;93.33
23473;BME280;11909;52.516;13.564;2023-02-02T03:45:36;100237.34;;;4.34;94.11
23473;BME280;11909;52.516;13.564;2023-02-02T03:48:06;100256.69;;;4.38;94.03
23473;BME280;11909;52.516;13.564;2023-02-02T03:50:34;100241.09;;;4.28;95.70
23473;BME280;11909;52.516;13.564;2023-02-02T03:53:03;100244.88;;;4.27;95.55
23473;BME280;11909;52.516;13.564;2023-02-02T03:55:31;100253.34;;;4.30;95.51
23473;BME280;11909;52.516;13.564;2023-02-02T03:58:00;100249.34;;;4.16;96.50
23473;BME280;11909;52.516;13.564;2023-02-02T04:00:28;100258.63;;;4.20;96.82
23473;BME280;11909;52.516;13.564;2023-02-02T04:02:55;100255.25;;;4.30;96.10
23473;BME280;11909;52.516;13.564;2023-02-02T04:05:23;100269.75;;;4.19;95.90
23473;BME280;11909;52.516;13.564;2023-02-02T04:07:52;100282.34;;;4.25;95.66
23473;BME280;11909;52.516;13.564;2023-02-02T04:10:21;100287.38;;;4.16;96.48
23473;BME280;11909;52.516;13.564;2023-02-02T04:12:48;100292.56;;;4.18;96.42
23473;BME280;11909;52.516;13.564;2023-02-02T04:15:16;100304.91;;;4.08;97.76
23473;BME280;11909;52.516;13.564;2023-02-02T04:17:44;100295.03;;;4.02;98.51
23473;BME280;11909;52.516;13.564;2023-02-02T04:20:12;100304.22;;;4.18;97.21
23473;BME280;11909;52.516;13.564;2023-02-02T04:22:39;100316.34;;;4.10;97.37
23473;BME280;11909;52.516;13.564;2023-02-02T04:25:07;100312.66;;;4.16;97.11
23473;BME280;11909;52.516;13.564;2023-02-02T04:27:36;100334.59;;;4.15;96.46
23473;BME280;11909;52.516;13.564;2023-02-02T04:30:05;100321.88;;;4.15;96.35
23473;BME280;11909;52.516;13.564;2023-02-02T04:32:34;100333.03;;;4.19;95.23
23473;BME280;11909;52.516;13.564;2023-02-02T04:35:02;100326.81;;;4.19;94.97
23473;BME280;11909;52.516;13.564;2023-02-02T04:37:30;100349.75;;;4.28;94.64
23473;BME280;11909;52.516;13.564;2023-02-02T04:39:58;100340.44;;;4.24;94.36
23473;BME280;11909;52.516;13.564;2023-02-02T04:42:26;100340.88;;;4.15;94.63
23473;BME280;11909;52.516;13.564;2023-02-02T04:44:56;100347.19;;;4.21;94.68
23473;BME280;11909;52.516;13.564;2023-02-02T04:47:23;100344.16;;;4.18;94.13
23473;BME280;11909;52.516;13.564;2023-02-02T04:49:51;100355.34;;;4.21;93.90
23473;BME280;11909;52.516;13.564;2023-02-02T04:52:19;100361.84;;;4.20;93.86
23473;BME280;11909;52.516;13.564;2023-02-02T04:54:46;100364.06;;;4.23;93.62
23473;BME280;11909;52.516;13.564;2023-02-02T04:57:14;100371.72;;;4.26;93.89
23473;BME280;11909;52.516;13.564;2023-02-02T04:59:43;100373.84;;;4.24;93.66
23473;BME280;11909;52.516;13.564;2023-02-02T05:02:12;100386.88;;;4.22;94.07
23473;BME280;11909;52.516;13.564;2023-02-02T05:04:39;100384.00;;;4.29;93.42
23473;BME280;11909;52.516;13.564;2023-02-02T05:07:07;100386.47;;;4.30;93.63
23473;BME280;11909;52.516;13.564;2023-02-02T05:09:35;100397.84;;;4.27;92.62
23473;BME280;11909;52.516;13.564;2023-02-02T05:12:03;100407.28;;;4.25;93.04
23473;BME280;11909;52.516;13.564;2023-02-02T05:14:31;100399.78;;;4.32;92.81
23473;BME280;11909;52.516;13.564;2023-02-02T05:16:58;100413.16;;;4.34;93.35
23473;BME280;11909;52.516;13.564;2023-02-02T05:19:28;100403.91;;;4.35;93.65
23473;BME280;11909;52.516;13.564;2023-02-02T05:21:55;100420.94;;;4.30;94.41
23473;BME280;11909;52.516;13.564;2023-02-02T05:24:23;100412.81;;;4.30;95.21
23473;BME280;11909;52.516;13.564;2023-02-02T05:26:52;100423.31;;;4.26;95.12
23473;BME280;11909;52.516;13.564;2023-02-02T05:29:24;100434.38;;;4.20;95.69
23473;BME280;11909;52.516;13.564;2023-02-02T05:31:51;100447.47;;;4.23;95.08
23473;BME280;11909;52.516;13.564;2023-02-02T05:34:19;100426.47;;;4.18;95.68
23473;BME280;11909;52.516;13.564;2023-02-02T05:36:49;100447.63;;;4.16;95.37
23473;BME280;11909;52.516;13.564;2023-02-02T05:39:16;100448.09;;;4.13;94.70
23473;BME280;11909;52.516;13.564;2023-02-02T05:41:44;100462.41;;;4.08;93.98
23473;BME280;11909;52.516;13.564;2023-02-02T05:44:13;100453.78;;;4.11;94.09
23473;BME280;11909;52.516;13.564;2023-02-02T05:46:40;100470.06;;;4.11;92.94
23473;BME280;11909;52.516;13.564;2023-02-02T05:49:12;100477.84;;;4.20;92.77
23473;BME280;11909;52.516;13.564;2023-02-02T05:51:42;100474.13;;;4.09;92.97
23473;BME280;11909;52.516;13.564;2023-02-02T05:54:12;100479.88;;;4.12;91.94
23473;BME280;11909;52.516;13.564;2023-02-02T05:56:45;100483.16;;;4.14;90.79
23473;BME280;11909;52.516;13.564;2023-02-02T05:59:12;100489.06;;;4.11;91.43
23473;BME280;11909;52.516;13.564;2023-02-02T06:01:40;100498.41;;;4.15;91.59
23473;BME280;11909;52.516;13.564;2023-02-02T06:04:08;100503.00;;;4.15;91.21
23473;BME280;11909;52.516;13.564;2023-02-02T06:06:36;100500.13;;;4.05;92.62
23473;BME280;11909;52.516;13.564;2023-02-02T06:09:04;100502.00;;;4.04;93.17
23473;BME280;11909;52.516;13.564;2023-02-02T06:11:34;100509.91;;;4.06;92.05
23473;BME280;11909;52.516;13.564;2023-02-02T06:14:01;100523.72;;;4.04;91.68
23473;BME280;11909;52.516;13.564;2023-02-02T06:16:29;100526.88;;;4.13;90.58
23473;BME280;11909;52.516;13.564;2023-02-02T06:18:57;100536.22;;;4.05;91.35
23473;BME280;11909;52.516;13.564;2023-02-02T06:21:24;100524.97;;;4.13;91.75
23473;BME280;11909;52.516;13.564;2023-02-02T06:23:57;100545.41;;;4.16;91.14
23473;BME280;11909;52.516;13.564;2023-02-02T06:26:25;100541.31;;;4.01;91.04
23473;BME280;11909;52.516;13.564;2023-02-02T06:28:54;100550.19;;;3.97;92.31
23473;BME280;11909;52.516;13.564;2023-02-02T06:31:22;100552.66;;;3.98;92.54
23473;BME280;11909;52.516;13.564;2023-02-02T06:33:53;100561.72;;;4.04;91.48
23473;BME280;11909;52.516;13.564;2023-02-02T06:36:22;100568.22;;;4.03;90.70
23473;BME280;11909;52.516;13.564;2023-02-02T06:38:51;100576.47;;;4.08;90.87
23473;BME280;11909;52.516;13.564;2023-02-02T06:41:19;100580.25;;;4.07;90.57
23473;BME280;11909;52.516;13.564;2023-02-02T06:43:48;100577.81;;;4.06;90.23
23473;BME280;11909;52.516;13.564;2023-02-02T06:46:17;100585.69;;;4.07;90.26
23473;BME280;11909;52.516;13.564;2023-02-02T06:48:45;100593.72;;;4.14;88.40
23473;BME280;11909;52.516;13.564;2023-02-02T06:51:13;100596.31;;;4.09;88.48
23473;BME280;11909;52.516;13.564;2023-02-02T06:53:40;100598.19;;;4.08;89.01
23473;BME280;11909;52.516;13.564;2023-02-02T06:56:10;100599.63;;;4.11;89.08
23473;BME280;11909;52.516;13.564;2023-02-02T06:58:39;100612.84;;;4.07;88.22
23473;BME280;11909;52.516;13.564;2023-02-02T07:01:08;100616.50;;;4.13;87.53
23473;BME280;11909;52.516;13.564;2023-02-02T07:03:38;100621.25;;;4.06;87.69
23473;BME280;11909;52.516;13.564;2023-02-02T07:06:13;100623.00;;;4.12;88.01
23473;BME280;11909;52.516;13.564;2023-02-02T07:08:41;100634.69;;;4.12;86.82
23473;BME280;11909;52.516;13.564;2023-02-02T07:11:09;100630.31;;;4.11;86.96
23473;BME280;11909;52.516;13.564;2023-02-02T07:13:42;100639.75;;;4.21;86.53
23473;BME280;11909;52.516;13.564;2023-02-02T07:16:09;100647.66;;;4.22;85.76
23473;BME280;11909;52.516;13.564;2023-02-02T07:18:40;100634.31;;;4.21;85.40
23473;BME280;11909;52.516;13.564;2023-02-02T07:21:15;100658.47;;;4.34;84.05
23473;BME280;11909;52.516;13.564;2023-02-02T07:23:43;100672.56;;;4.31;83.92
23473;BME280;11909;52.516;13.564;2023-02-02T07:26:12;100677.53;;;4.22;84.20
23473;BME280;11909;52.516;13.564;2023-02-02T07:28:41;100674.69;;;4.29;83.94
23473;BME280;11909;52.516;13.564;2023-02-02T07:31:13;100687.69;;;4.27;81.91
23473;BME280;11909;52.516;13.564;2023-02-02T07:33:43;100697.38;;;4.23;81.37
23473;BME280;11909;52.516;13.564;2023-02-02T07:36:13;100697.38;;;4.23;82.44
23473;BME280;11909;52.516;13.564;2023-02-02T07:38:43;100708.13;;;4.29;81.56
23473;BME280;11909;52.516;13.564;2023-02-02T07:41:11;100703.50;;;4.30;80.92
23473;BME280;11909;52.516;13.564;2023-02-02T07:43:39;100715.91;;;4.26;80.20
23473;BME280;11909;52.516;13.564;2023-02-02T07:46:09;100709.78;;;4.30;79.22
23473;BME280;11909;52.516;13.564;2023-02-02T07:48:38;100713.19;;;4.38;77.87
23473;BME280;11909;52.516;13.564;2023-02-02T07:51:10;100726.31;;;4.29;77.68
23473;BME280;11909;52.516;13.564;2023-02-02T07:53:41;100724.53;;;4.23;77.86
23473;BME280;11909;52.516;13.564;2023-02-02T07:56:11;100726.06;;;4.30;78.59
23473;BME280;11909;52.516;13.564;2023-02-02T07:58:39;100726.09;;;4.19;78.37
23473;BME280;11909;52.516;13.564;2023-02-02T08:01:08;100732.91;;;4.21;79.06
23473;BME280;11909;52.516;13.564;2023-02-02T08:03:37;100735.53;;;4.16;79.27
23473;BME280;11909;52.516;13.564;2023-02-02T08:06:12;100738.03;;;4.06;79.30
23473;BME280;11909;52.516;13.564;2023-02-02T08:08:40;100733.88;;;4.03;79.68
23473;BME280;11909;52.516;13.564;2023-02-02T08:11:10;100733.41;;;4.18;83.48
23473;BME280;11909;52.516;13.564;2023-02-02T08:13:38;100751.03;;;4.15;79.10
23473;BME280;11909;52.516;13.564;2023-02-02T08:16:07;100759.97;;;4.28;79.85
23473;BME280;11909;52.516;13.564;2023-02-02T08:18:35;100767.53;;;4.26;79.55
23473;BME280;11909;52.516;13.564;2023-02-02T08:21:05;100761.03;;;4.27;80.27
23473;BME280;11909;52.516;13.564;2023-02-02T08:23:36;100760.66;;;4.35;80.49
23473;BME280;11909;52.516;13.564;2023-02-02T08:26:05;100758.69;;;4.30;81.97
23473;BME280;11909;52.516;13.564;2023-02-02T08:28:33;100761.59;;;4.41;84.86
23473;BME280;11909;52.516;13.564;2023-02-02T08:31:06;100761.59;;;4.53;85.01
23473;BME280;11909;52.516;13.564;2023-02-02T08:33:35;100752.72;;;4.57;86.32
23473;BME280;11909;52.516;13.564;2023-02-02T08:36:08;100763.72;;;4.51;85.29
23473;BME280;11909;52.516;13.564;2023-02-02T08:38:39;100755.19;;;4.59;85.59
23473;BME280;11909;52.516;13.564;2023-02-02T08:41:09;100763.91;;;4.61;87.03
23473;BME280;11909;52.516;13.564;2023-02-02T08:43:38;100764.06;;;4.66;88.28
23473;BME280;11909;52.516;13.564;2023-02-02T08:46:07;100766.53;;;4.56;87.35
23473;BME280;11909;52.516;13.564;2023-02-02T08:48:35;100766.66;;;4.49;88.63
23473;BME280;11909;52.516;13.564;2023-02-02T08:51:04;100772.94;;;4.50;88.87
23473;BME280;11909;52.516;13.564;2023-02-02T08:53:32;100758.34;;;4.68;90.24
23473;BME280;11909;52.516;13.564;2023-02-02T08:56:03;100766.00;;;4.83;90.43
23473;BME280;11909;52.516;13.564;2023-02-02T08:58:32;100776.06;;;4.82;89.18
23473;BME280;11909;52.516;13.564;2023-02-02T09:01:04;100777.47;;;4.85;89.73
23473;BME280;11909;52.516;13.564;2023-02-02T09:03:33;100782.94;;;4.73;88.69
23473;BME280;11909;52.516;13.564;2023-02-02T09:06:05;100780.66;;;4.82;89.02
23473;BME280;11909;52.516;13.564;2023-02-02T09:08:33;100785.03;;;4.83;87.56
23473;BME280;11909;52.516;13.564;2023-02-02T09:11:07;100790.34;;;4.90;86.69
23473;BME280;11909;52.516;13.564;2023-02-02T09:13:37;100800.19;;;4.79;87.25
23473;BME280;11909;52.516;13.564;2023-02-02T09:16:08;100793.63;;;4.92;87.97
23473;BME280;11909;52.516;13.564;2023-02-02T09:18:36;100814.00;;;4.89;87.12
23473;BME280;11909;52.516;13.564;2023-02-02T09:21:06;100801.91;;;4.97;86.25
23473;BME280;11909;52.516;13.564;2023-02-02T09:23:36;100808.41;;;4.96;87.38
23473;BME280;11909;52.516;13.564;2023-02-02T09:26:10;100823.81;;;4.90;85.83
23473;BME280;11909;52.516;13.564;2023-02-02T09:28:39;100822.03;;;4.84;87.64
23473;BME280;11909;52.516;13.564;2023-02-02T09:31:07;100812.97;;;4.78;88.38
23473;BME280;11909;52.516;13.564;2023-02-02T09:33:38;100825.72;;;4.78;87.11
23473;BME280;11909;52.516;13.564;2023-02-02T09:36:08;100836.03;;;5.05;87.40
23473;BME280;11909;52.516;13.564;2023-02-02T09:38:36;100822.31;;;5.11;85.15
23473;BME280;11909;52.516;13.564;2023-02-02T09:41:24;100834.94;;;5.17;84.31
23473;BME280;11909;52.516;13.564;2023-02-02T09:43:59;100840.66;;;5.16;85.83
23473;BME280;11909;52.516;13.564;2023-02-02T09:46:38;100843.56;;;5.26;86.38
23473;BME280;11909;52.516;13.564;2023-02-02T09:49:12;100855.50;;;5.25;83.11
23473;BME280;11909;52.516;13.564;2023-02-02T09:51:45;100857.41;;;5.25;85.06
23473;BME280;11909;52.516;13.564;2023-02-02T09:54:18;100841.47;;;5.45;85.34
23473;BME280;11909;52.516;13.564;2023-02-02T09:56:51;100853.56;;;5.67;83.31
23473;BME280;11909;52.516;13.564;2023-02-02T09:59:25;100865.56;;;5.54;80.37
23473;BME280;11909;52.516;13.564;2023-02-02T10:01:56;100868.38;;;5.59;82.52
23473;BME280;11909;52.516;13.564;2023-02-02T10:04:27;100866.75;;;5.58;82.57
23473;BME280;11909;52.516;13.564;2023-02-02T10:07:04;100869.31;;;5.65;82.48
23473;BME280;11909;52.516;13.564;2023-02-02T10:09:39;100878.47;;;5.58;82.38
23473;BME280;11909;52.516;13.564;2023-02-02T10:12:20;100875.97;;;5.57;79.67
23473;BME280;11909;52.516;13.564;2023-02-02T10:14:55;100881.81;;;5.49;80.10
23473;BME280;11909;52.516;13.564;2023-02-02T10:17:38;100877.78;;;5.51;79.34
23473;BME280;11909;52.516;13.564;2023-02-02T10:20:17;100888.44;;;5.53;78.56
23473;BME280;11909;52.516;13.564;2023-02-02T10:22:47;100896.09;;;5.56;77.41
23473;BME280;11909;52.516;13.564;2023-02-02T10:25:16;100899.44;;;5.75;77.46
23473;BME280;11909;52.516;13.564;2023-02-02T10:27:53;100911.00;;;5.65;75.08
23473;BME280;11909;52.516;13.564;2023-02-02T10:30:35;100904.22;;;5.68;75.80
23473;BME280;11909;52.516;13.564;2023-02-02T10:33:14;100909.03;;;5.78;76.46
23473;BME280;11909;52.516;13.564;2023-02-02T10:35:48;100901.94;;;6.06;76.66
23473;BME280;11909;52.516;13.564;2023-02-02T10:38:26;100926.22;;;6.07;73.76
23473;BME280;11909;52.516;13.564;2023-02-02T10:41:10;100918.97;;;6.13;72.09
23473;BME280;11909;52.516;13.564;2023-02-02T10:46:52;100930.78;;;6.36;69.97
23473;BME280;11909;52.516;13.564;2023-02-02T10:49:26;100936.97;;;6.48;69.65
23473;BME280;11909;52.516;13.564;2023-02-02T10:52:00;100936.91;;;6.43;69.95
23473;BME280;11909;52.516;13.564;2023-02-02T10:54:43;100949.53;;;6.49;68.30
23473;BME280;11909;52.516;13.564;2023-02-02T10:57:33;100953.81;;;6.28;68.31
23473;BME280;11909;52.516;13.564;2023-02-02T11:00:13;100955.47;;;6.12;68.23
23473;BME280;11909;52.516;13.564;2023-02-02T11:02:43;100958.81;;;6.02;68.85
23473;BME280;11909;52.516;13.564;2023-02-02T11:05:13;100968.19;;;5.94;69.17
23473;BME280;11909;52.516;13.564;2023-02-02T11:08:01;100964.31;;;5.90;69.49
23473;BME280;11909;52.516;13.564;2023-02-02T11:10:31;100974.50;;;5.83;67.12
23473;BME280;11909;52.516;13.564;2023-02-02T11:13:01;100990.59;;;5.84;67.04
23473;BME280;11909;52.516;13.564;2023-02-02T11:15:29;100967.44;;;5.99;68.37
23473;BME280;11909;52.516;13.564;2023-02-02T11:18:11;100988.41;;;5.98;68.77
23473;BME280;11909;52.516;13.564;2023-02-02T11:20:41;100991.47;;;6.14;67.46
23473;BME280;11909;52.516;13.564;2023-02-02T11:23:15;100994.41;;;6.12;68.05
23473;BME280;11909;52.516;13.564;2023-02-02T11:25:44;101002.78;;;6.23;66.66
23473;BME280;11909;52.516;13.564;2023-02-02T11:28:17;100997.72;;;6.14;66.78
23473;BME280;11909;52.516;13.564;2023-02-02T11:30:47;101011.41;;;6.02;67.64
23473;BME280;11909;52.516;13.564;2023-02-02T11:33:27;101011.69;;;5.89;68.22
23473;BME280;11909;52.516;13.564;2023-02-02T11:35:57;101003.16;;;5.85;69.10
23473;BME280;11909;52.516;13.564;2023-02-02T11:38:26;101007.75;;;5.85;69.61
23473;BME280;11909;52.516;13.564;2023-02-02T11:40:56;101008.72;;;5.79;70.16
23473;BME280;11909;52.516;13.564;2023-02-02T11:43:31;101017.03;;;5.72;69.02
23473;BME280;11909;52.516;13.564;2023-02-02T11:46:01;101013.81;;;5.75;69.81
23473;BME280;11909;52.516;13.564;2023-02-02T11:48:33;101006.38;;;5.82;70.43
23473;BME280;11909;52.516;13.564;2023-02-02T11:51:04;101012.44;;;5.72;69.73
23473;BME280;11909;52.516;13.564;2023-02-02T11:53:34;101015.97;;;5.73;70.63
23473;BME280;11909;52.516;13.564;2023-02-02T11:56:07;101020.22;;;5.81;70.85
23473;BME280;11909;52.516;13.564;2023-02-02T11:58:44;101017.69;;;6.03;70.34
23473;BME280;11909;52.516;13.564;2023-02-02T12:01:22;101023.38;;;5.89;70.69
23473;BME280;11909;52.516;13.564;2023-02-02T12:03:53;101024.69;;;5.87;70.02
23473;BME280;11909;52.516;13.564;2023-02-02T12:06:23;101022.34;;;5.79;71.69
23473;BME280;11909;52.516;13.564;2023-02-02T12:08:56;101033.16;;;5.73;74.37
23473;BME280;11909;52.516;13.564;2023-02-02T12:11:34;101030.81;;;5.65;74.95
23473;BME280;11909;52.516;13.564;2023-02-02T12:14:18;101035.78;;;5.56;75.80
23473;BME280;11909;52.516;13.564;2023-02-02T12:16:55;101032.25;;;5.44;76.22
23473;BME280;11909;52.516;13.564;2023-02-02T12:19:55;101035.94;;;5.38;77.37
23473;BME280;11909;52.516;13.564;2023-02-02T12:25:36;101047.06;;;5.36;77.64
23473;BME280;11909;52.516;13.564;2023-02-02T12:28:18;101055.09;;;5.19;76.52
23473;BME280;11909;52.516;13.564;2023-02-02T12:30:54;101051.69;;;5.12;76.98
23473;BME280;11909;52.516;13.564;2023-02-02T12:33:32;101047.78;;;5.20;77.75
23473;BME280;11909;52.516;13.564;2023-02-02T12:36:28;101056.28;;;5.23;78.42
23473;BME280;11909;52.516;13.564;2023-02-02T12:39:12;101062.19;;;5.08;80.13
23473;BME280;11909;52.516;13.564;2023-02-02T12:45:13;101057.25;;;5.05;79.88
23473;BME280;11909;52.516;13.564;2023-02-02T12:47:52;101051.09;;;5.10;81.35
23473;BME280;11909;52.516;13.564;2023-02-02T12:50:29;101043.16;;;5.08;83.50
23473;BME280;11909;52.516;13.564;2023-02-02T12:53:12;101038.19;;;5.17;85.35
23473;BME280;11909;52.516;13.564;2023-02-02T12:55:47;101036.75;;;5.26;86.13
23473;BME280;11909;52.516;13.564;2023-02-02T12:58:26;101040.78;;;5.48;85.68
23473;BME280;11909;52.516;13.564;2023-02-02T13:01:10;101054.25;;;5.66;84.49
23473;BME280;11909;52.516;13.564;2023-02-02T13:03:56;101048.41;;;5.74;84.65
23473;BME280;11909;52.516;13.564;2023-02-02T13:07:07;101056.06;;;5.89;84.50
23473;BME280;11909;52.516;13.564;2023-02-02T13:09:44;101067.06;;;6.07;83.00
23473;BME280;11909;52.516;13.564;2023-02-02T13:12:17;101080.06;;;6.16;80.23
23473;BME280;11909;52.516;13.564;2023-02-02T13:14:49;101086.84;;;6.14;79.81
23473;BME280;11909;52.516;13.564;2023-02-02T13:17:21;101087.22;;;5.94;78.80
23473;BME280;11909;52.516;13.564;2023-02-02T13:19:53;101098.47;;;6.09;75.89
23473;BME280;11909;52.516;13.564;2023-02-02T13:22:25;101115.03;;;5.96;75.08
23473;BME280;11909;52.516;13.564;2023-02-02T13:24:59;101128.31;;;6.16;73.51
23473;BME280;11909;52.516;13.564;2023-02-02T13:27:28;101132.88;;;6.27;72.49
23473;BME280;11909;52.516;13.564;2023-02-02T13:30:01;101143.69;;;6.22;70.32